ERSO2: EL RENO

Data processed at Mon Sep 24 2018 22:02


All information presented herein is the property of the government of the United States of America and may be revised or deleted at any time without prior notice.
Dissemination of this information without the expressed written consent of the Public Affairs Office, Tulsa District U.S. Army Corps of Engineers is strictly prohibited.
These data are gathered electronically and, as presented, have not undergone any form of quality control. These data are not guaranteed to be valid or correct.
Go to home page.
Go to station list.
Go to home page.

Downstream station:


Previous Day
Next Day
Current Day
    
SHEF ID:       ELNO2     North Canadian River near El Ren
STATION TYPE:  

               PRECIP     STAGE  STAGE(2)  RIV-FLOW  WTR-TEMP   CONDUCT  BAT-LOAD
                   in        ft        ft       cfs         F   umho/cm      volt
              Ccp-Rev   Ccp-Rev   Ccp-Rev   Ccp-Rev   Ccp-Rev   Ccp-Rev   Ccp-Rev
(US/Central)
09/24 00:00      0.00      7.50      ----       918     67.12       214     12.65
09/24 01:00      0.00      7.32      ----       854     67.17       218     12.65
09/24 02:00      0.00      7.20      ----       812     67.21       219     12.65
09/24 03:00      0.00      7.07      ----       768     67.24       220     12.65
09/24 04:00      0.00      6.93      ----       723     67.23       224     12.65
09/24 05:00      0.00      6.77      ----       672     67.21       227     12.65
09/24 06:00      0.00      6.66      ----       639     67.19       234     12.65
09/24 07:00      0.00      6.48      ----       585     67.15       239     12.57
09/24 08:00      0.00      6.37      ----       554     67.14       242     12.57
09/24 09:00      0.00      6.24      ----       518     67.17       246     12.57
09/24 10:00      0.00      6.16      ----       496     67.30       245     13.05
09/24 11:00      0.00      6.05      ----       467     67.53       254     13.13
09/24 12:00      0.00      5.96      ----       444     67.91       260     13.29
09/24 13:00      0.00      5.89      ----       426     68.27       266     13.60
09/24 14:00      0.00      5.82      ----       409     68.88       272     13.76
09/24 15:00      0.00      5.73      ----       387     69.82       312     13.68
09/24 16:00      0.00      5.65      ----       368     70.54       282     13.68
09/24 17:00      0.00      5.60      ----       357     71.11       287     13.60
09/24 18:00      0.00      5.56      ----       348     71.24       291     13.29
09/24 19:00      0.00      5.50      ----       334     70.86       294     13.21
09/24 20:00      0.00      5.49      ----       332     70.54       297     12.81
09/24 21:00      0.00      5.41      ----       315     70.39       302     12.73
09/24 22:00      ----      ----      ----      ----      ----      ----      ----
09/24 23:00      ----      ----      ----      ----      ----      ----      ----